createdAt,value
2017-11-20T00:00:18.989Z,20.84
2017-11-20T00:02:44.809Z,20.85
2017-11-20T00:05:11.406Z,20.86
2017-11-20T00:07:37.199Z,20.84
2017-11-20T00:10:02.986Z,20.84
2017-11-20T00:12:28.764Z,20.79
2017-11-20T00:14:54.585Z,20.73
2017-11-20T00:17:20.368Z,20.80
2017-11-20T00:19:46.152Z,20.84
2017-11-20T00:22:12.920Z,20.84
2017-11-20T00:24:38.748Z,20.94
2017-11-20T00:27:04.530Z,20.92
2017-11-20T00:29:30.329Z,20.79
2017-11-20T00:31:56.123Z,20.79
2017-11-20T00:34:21.901Z,20.82
2017-11-20T00:36:47.687Z,20.80
2017-11-20T00:39:13.480Z,20.73
2017-11-20T00:41:39.274Z,20.79
2017-11-20T00:44:11.897Z,20.86
2017-11-20T00:46:37.685Z,20.81
2017-11-20T00:49:03.460Z,20.86
2017-11-20T00:51:29.277Z,20.88
2017-11-20T00:53:55.055Z,20.94
2017-11-20T00:56:20.846Z,20.96
2017-11-20T00:58:46.636Z,20.90
2017-11-20T01:01:13.417Z,20.85
2017-11-20T01:03:39.242Z,20.84
2017-11-20T01:06:05.031Z,20.89
2017-11-20T01:08:30.821Z,20.84
2017-11-20T01:10:56.645Z,20.85
2017-11-20T01:13:23.403Z,20.85
2017-11-20T01:15:49.227Z,20.85
2017-11-20T01:18:15.030Z,20.79
2017-11-20T01:20:41.742Z,20.70
2017-11-20T01:23:07.534Z,20.75
2017-11-20T01:25:33.924Z,20.74
2017-11-20T01:27:59.722Z,20.69
2017-11-20T01:30:25.508Z,20.73
2017-11-20T01:32:51.375Z,20.71
2017-11-20T01:35:18.085Z,20.74
2017-11-20T01:37:43.879Z,20.73
2017-11-20T01:40:10.647Z,20.61
2017-11-20T01:42:36.433Z,20.68
2017-11-20T01:45:03.208Z,20.65
2017-11-20T01:47:29.032Z,20.71
2017-11-20T01:49:55.693Z,20.68
2017-11-20T01:52:21.489Z,20.69
2017-11-20T01:54:47.837Z,20.69
2017-11-20T01:57:13.666Z,20.61
2017-11-20T01:59:39.463Z,20.58
2017-11-20T02:02:05.250Z,20.63
2017-11-20T02:04:31.046Z,20.56
2017-11-20T02:06:57.854Z,20.64
2017-11-20T02:09:24.585Z,20.61
2017-11-20T02:11:50.384Z,20.62
2017-11-20T02:14:17.151Z,20.63
2017-11-20T02:16:42.928Z,20.54
2017-11-20T02:19:08.759Z,20.52
2017-11-20T02:21:34.562Z,20.53
2017-11-20T02:24:00.402Z,20.55
2017-11-20T02:26:26.291Z,20.56
2017-11-20T02:28:52.090Z,20.53
2017-11-20T02:31:17.934Z,20.51
2017-11-20T02:33:43.729Z,20.54
2017-11-20T02:36:09.528Z,20.48
2017-11-20T02:38:35.331Z,20.49
2017-11-20T02:41:01.161Z,20.50
2017-11-20T02:43:26.951Z,20.50
2017-11-20T02:45:52.747Z,20.51
2017-11-20T02:48:18.547Z,20.50
2017-11-20T02:50:44.337Z,20.41
2017-11-20T02:53:10.169Z,20.35
2017-11-20T02:55:35.973Z,20.35
2017-11-20T02:58:01.797Z,20.34
2017-11-20T03:00:27.642Z,20.44
2017-11-20T03:02:53.449Z,20.31
2017-11-20T03:05:20.241Z,20.51
2017-11-20T03:07:46.033Z,20.51
2017-11-20T03:10:11.847Z,20.51
2017-11-20T03:12:37.645Z,20.52
2017-11-20T03:15:03.451Z,20.51
2017-11-20T03:17:29.251Z,20.50
2017-11-20T03:19:55.049Z,20.46
2017-11-20T03:22:20.855Z,20.37
2017-11-20T03:24:46.665Z,20.44
2017-11-20T03:27:12.501Z,20.45
2017-11-20T03:29:38.325Z,20.46
2017-11-20T03:32:04.128Z,20.47
2017-11-20T03:34:29.918Z,20.48
2017-11-20T03:36:55.717Z,20.40
2017-11-20T03:39:21.517Z,20.46
2017-11-20T03:41:47.309Z,20.39
2017-11-20T03:44:13.171Z,20.37
2017-11-20T03:46:39.003Z,20.44
2017-11-20T03:49:04.806Z,20.47
2017-11-20T03:51:31.523Z,20.51
2017-11-20T03:53:57.321Z,20.44
2017-11-20T03:56:23.125Z,20.46
2017-11-20T03:58:48.925Z,20.49
2017-11-20T04:01:21.793Z,20.38
2017-11-20T04:03:47.582Z,20.36
2017-11-20T04:06:13.386Z,20.44
2017-11-20T04:08:39.184Z,20.44
2017-11-20T04:11:04.987Z,20.46
2017-11-20T04:13:30.777Z,20.46
2017-11-20T04:15:56.576Z,20.52
2017-11-20T04:18:22.375Z,20.45
2017-11-20T04:20:48.181Z,20.39
2017-11-20T04:23:13.979Z,20.43
2017-11-20T04:25:39.770Z,20.47
2017-11-20T04:28:05.560Z,20.48
2017-11-20T04:30:31.409Z,20.45
2017-11-20T04:32:57.194Z,20.41
2017-11-20T04:35:23.025Z,20.42
2017-11-20T04:37:48.818Z,20.42
2017-11-20T04:40:14.605Z,20.29
2017-11-20T04:42:40.405Z,20.43
2017-11-20T04:45:06.206Z,20.48
2017-11-20T04:47:31.989Z,20.51
2017-11-20T04:49:57.785Z,20.44
2017-11-20T04:52:23.572Z,20.46
2017-11-20T04:54:49.364Z,20.55
2017-11-20T04:57:15.206Z,20.50
2017-11-20T04:59:41.006Z,20.47
2017-11-20T05:02:06.798Z,20.47
2017-11-20T05:04:32.581Z,20.49
2017-11-20T05:06:58.362Z,20.49
2017-11-20T05:09:24.161Z,20.59
2017-11-20T05:11:49.954Z,20.55
2017-11-20T05:14:15.750Z,20.58
2017-11-20T05:16:41.600Z,20.58
2017-11-20T05:19:07.392Z,20.44
2017-11-20T05:21:33.235Z,20.54
2017-11-20T05:23:59.017Z,20.52
2017-11-20T05:26:24.813Z,20.58
2017-11-20T05:28:50.627Z,20.58
2017-11-20T05:31:16.422Z,20.59
2017-11-20T05:33:42.229Z,20.43
2017-11-20T05:36:08.078Z,20.60
2017-11-20T05:38:33.873Z,20.63
2017-11-20T05:40:59.672Z,20.65
2017-11-20T05:43:25.460Z,20.66
2017-11-20T05:45:51.501Z,20.69
2017-11-20T05:48:17.293Z,20.67
2017-11-20T05:50:43.122Z,20.65
2017-11-20T05:53:08.949Z,20.67
2017-11-20T05:55:34.768Z,20.67
2017-11-20T05:58:00.594Z,20.71
2017-11-20T06:00:26.393Z,20.62
2017-11-20T06:02:52.325Z,20.60
2017-11-20T06:05:18.142Z,20.57
2017-11-20T06:07:43.943Z,20.63
2017-11-20T06:10:09.741Z,20.69
2017-11-20T06:12:35.545Z,20.71
2017-11-20T06:15:01.413Z,20.78
2017-11-20T06:17:27.212Z,20.74
2017-11-20T06:19:53.003Z,20.77
2017-11-20T06:22:18.813Z,20.76
2017-11-20T06:24:44.588Z,20.72
2017-11-20T06:27:10.397Z,20.70
2017-11-20T06:29:36.179Z,20.76
2017-11-20T06:32:02.005Z,20.79
2017-11-20T06:34:27.801Z,20.88
2017-11-20T06:36:53.616Z,20.89
2017-11-20T06:39:19.401Z,20.98
2017-11-20T06:41:45.198Z,20.89
2017-11-20T06:44:11.021Z,20.77
2017-11-20T06:46:36.808Z,20.82
2017-11-20T06:49:02.637Z,20.82
2017-11-20T06:51:28.464Z,20.91
2017-11-20T06:53:54.257Z,20.90
2017-11-20T06:56:20.033Z,20.86
2017-11-20T06:58:45.858Z,20.81
2017-11-20T07:01:11.661Z,20.79
2017-11-20T07:03:37.449Z,20.85
2017-11-20T07:06:03.228Z,20.81
2017-11-20T07:08:29.050Z,20.83
2017-11-20T07:10:54.861Z,20.87
2017-11-20T07:13:20.719Z,20.89
2017-11-20T07:15:46.513Z,20.83
2017-11-20T07:18:12.294Z,20.81
2017-11-20T07:20:38.086Z,20.85
2017-11-20T07:23:03.878Z,20.88
2017-11-20T07:25:35.697Z,20.84
2017-11-20T07:28:01.485Z,20.82
2017-11-20T07:30:33.509Z,20.88
2017-11-20T07:32:59.296Z,20.80
2017-11-20T07:35:25.132Z,20.76
2017-11-20T07:40:49.034Z,20.81
2017-11-20T07:43:14.822Z,20.86
2017-11-20T07:45:40.636Z,20.86
2017-11-20T07:48:06.415Z,20.90
2017-11-20T07:50:32.185Z,20.77
2017-11-20T07:52:57.963Z,20.74
2017-11-20T07:55:23.741Z,20.81
2017-11-20T07:57:49.553Z,20.79
2017-11-20T08:00:15.336Z,20.69
2017-11-20T08:02:41.117Z,20.75
2017-11-20T08:05:06.963Z,20.73
2017-11-20T08:07:32.748Z,20.75
2017-11-20T08:09:58.543Z,20.75
2017-11-20T08:12:24.356Z,20.88
2017-11-20T08:14:50.133Z,20.88
2017-11-20T08:17:15.961Z,20.99
2017-11-20T08:19:41.736Z,20.97
2017-11-20T08:22:07.607Z,20.83
2017-11-20T08:24:33.381Z,20.84
2017-11-20T08:26:59.165Z,20.79
2017-11-20T08:29:24.954Z,20.93
2017-11-20T08:31:50.751Z,20.93
2017-11-20T08:34:16.637Z,20.89
2017-11-20T08:36:42.423Z,20.95
2017-11-20T08:39:08.243Z,20.90
2017-11-20T08:41:34.030Z,20.88
2017-11-20T08:43:59.850Z,20.85
2017-11-20T08:46:25.625Z,20.81
2017-11-20T08:48:51.414Z,20.86
2017-11-20T08:51:17.197Z,20.95
2017-11-20T08:53:42.980Z,21.00
2017-11-20T08:56:08.767Z,20.98
2017-11-20T08:58:34.548Z,20.91
2017-11-20T09:01:00.329Z,20.85
2017-11-20T09:03:26.120Z,20.87
2017-11-20T09:05:51.902Z,20.87
2017-11-20T09:08:17.721Z,20.89
2017-11-20T09:10:43.522Z,20.90
2017-11-20T09:13:09.316Z,20.92
2017-11-20T09:15:35.097Z,20.93
2017-11-20T09:18:00.909Z,20.83
2017-11-20T09:20:26.756Z,20.88
2017-11-20T09:22:52.554Z,20.87
2017-11-20T09:25:18.338Z,20.88
2017-11-20T09:27:45.095Z,20.96
2017-11-20T09:30:10.881Z,20.95
2017-11-20T09:32:46.384Z,20.90
2017-11-20T09:35:12.413Z,20.81
2017-11-20T09:37:39.546Z,20.86
2017-11-20T09:40:05.501Z,21.01
2017-11-20T09:42:31.308Z,20.98
2017-11-20T09:44:57.094Z,20.92
2017-11-20T09:47:22.876Z,20.97
2017-11-20T09:49:48.693Z,20.99
2017-11-20T09:52:14.482Z,20.91
2017-11-20T09:54:40.320Z,20.94
2017-11-20T09:57:06.102Z,20.94
2017-11-20T09:59:31.929Z,20.94
2017-11-20T10:01:57.713Z,21.06
2017-11-20T10:04:23.508Z,21.01
2017-11-20T10:06:49.301Z,21.00
2017-11-20T10:09:15.089Z,20.96
2017-11-20T10:11:40.880Z,20.90
2017-11-20T10:14:06.686Z,20.85
2017-11-20T10:16:32.509Z,20.95
2017-11-20T10:18:58.298Z,21.00
2017-11-20T10:21:24.146Z,20.99
2017-11-20T10:23:49.936Z,21.00
2017-11-20T10:26:15.789Z,20.98
2017-11-20T10:28:41.608Z,21.08
2017-11-20T10:31:07.396Z,20.98
2017-11-20T10:33:33.221Z,21.03
2017-11-20T10:35:59.017Z,21.08
2017-11-20T10:38:24.797Z,21.06
2017-11-20T10:40:50.589Z,21.13
2017-11-20T10:43:16.381Z,21.12
2017-11-20T10:45:42.161Z,21.10
2017-11-20T10:48:07.951Z,21.03
2017-11-20T10:50:33.742Z,21.00
2017-11-20T10:52:59.532Z,20.97
2017-11-20T10:55:25.317Z,21.04
2017-11-20T10:58:05.611Z,21.10
2017-11-20T11:00:32.073Z,21.07
2017-11-20T11:02:57.912Z,21.04
2017-11-20T11:05:23.708Z,21.05
2017-11-20T11:07:49.523Z,21.01
2017-11-20T11:10:15.309Z,21.01
2017-11-20T11:12:41.201Z,20.98
2017-11-20T11:15:07.053Z,21.10
2017-11-20T11:17:32.874Z,21.04
2017-11-20T11:19:58.668Z,21.08
2017-11-20T11:22:24.470Z,21.14
2017-11-20T11:24:50.270Z,21.11
2017-11-20T11:27:16.061Z,21.12
2017-11-20T11:29:41.860Z,21.06
2017-11-20T11:32:07.709Z,21.02
2017-11-20T11:34:33.525Z,21.04
2017-11-20T11:36:59.626Z,21.12
2017-11-20T11:39:25.482Z,21.16
2017-11-20T17:38:39.758Z,20.10
2017-11-20T17:43:49.577Z,19.93
2017-11-20T17:46:15.452Z,20.14
2017-11-20T17:48:41.293Z,20.29
2017-11-20T17:51:07.079Z,20.40
2017-11-20T17:53:32.870Z,20.46
2017-11-20T17:55:58.645Z,20.62
2017-11-20T17:58:24.623Z,20.67
2017-11-20T18:00:50.445Z,20.67
2017-11-20T18:03:16.250Z,20.62
2017-11-20T18:05:42.058Z,20.56
2017-11-20T18:08:07.862Z,20.67
2017-11-20T18:10:33.655Z,20.68
2017-11-20T18:13:00.415Z,20.70
2017-11-20T18:15:26.240Z,20.76
2017-11-20T18:17:52.033Z,20.70
2017-11-20T18:20:17.855Z,20.65
2017-11-20T18:22:43.669Z,20.75
2017-11-20T18:25:09.644Z,20.75
2017-11-20T18:27:35.434Z,20.79
2017-11-20T18:30:01.231Z,20.80
2017-11-20T18:32:27.022Z,20.71
2017-11-20T18:34:52.815Z,20.72
2017-11-20T18:37:18.617Z,20.66
2017-11-20T18:39:44.410Z,20.63
2017-11-20T18:42:10.207Z,20.67
2017-11-20T18:44:35.988Z,20.65
2017-11-20T18:47:01.875Z,20.75
2017-11-20T18:49:27.803Z,20.81
2017-11-20T18:51:55.322Z,20.83
2017-11-20T18:54:21.164Z,20.86
2017-11-20T18:56:47.022Z,20.86
2017-11-20T18:59:12.810Z,20.85
2017-11-20T19:01:44.656Z,20.80
2017-11-20T19:04:17.737Z,20.81
2017-11-20T19:06:49.566Z,20.85
2017-11-20T19:09:15.374Z,20.82
2017-11-20T19:11:41.295Z,20.85
2017-11-20T19:14:07.111Z,20.76
2017-11-20T19:16:32.905Z,20.77
2017-11-20T19:18:58.684Z,20.83
2017-11-20T19:21:24.470Z,20.82
2017-11-20T19:23:50.270Z,20.84
2017-11-20T19:26:16.049Z,20.83
2017-11-20T19:28:41.838Z,20.83
2017-11-20T19:31:07.650Z,20.78
2017-11-20T19:33:33.437Z,20.80
2017-11-20T19:35:59.242Z,20.84
2017-11-20T19:38:25.025Z,20.83
2017-11-20T19:40:50.810Z,20.85
2017-11-20T19:43:16.625Z,20.75
2017-11-20T19:45:42.404Z,20.70
2017-11-20T19:48:08.227Z,20.71
2017-11-20T19:50:34.017Z,20.76
2017-11-20T19:52:59.809Z,20.81
2017-11-20T19:55:27.986Z,20.83
2017-11-20T19:57:53.980Z,20.94
2017-11-20T20:00:19.774Z,20.93
2017-11-20T20:02:45.608Z,20.96
2017-11-20T20:05:11.504Z,20.93
2017-11-20T20:07:37.441Z,20.87
2017-11-20T20:10:03.257Z,20.83
2017-11-20T20:12:29.162Z,20.85
2017-11-20T20:15:01.119Z,20.86
2017-11-20T20:17:27.049Z,20.86
2017-11-20T20:19:52.834Z,20.75
2017-11-20T20:22:18.810Z,20.82
2017-11-20T20:24:44.846Z,20.82
2017-11-20T20:27:10.636Z,20.83
2017-11-20T20:29:36.417Z,20.87
2017-11-20T20:32:02.322Z,20.85
2017-11-20T20:34:28.105Z,20.77
2017-11-20T20:36:54.066Z,20.77
2017-11-20T20:39:20.674Z,20.84
2017-11-20T20:41:48.299Z,20.79
2017-11-20T20:44:14.158Z,20.84
2017-11-20T20:46:39.944Z,20.81
2017-11-20T20:49:05.884Z,20.79
2017-11-20T20:51:31.674Z,20.74
2017-11-20T20:53:57.458Z,20.77
2017-11-20T20:56:23.255Z,20.82
2017-11-20T20:58:49.037Z,20.83
2017-11-20T21:01:14.822Z,20.81
2017-11-20T21:03:40.653Z,20.76
2017-11-20T21:06:06.436Z,20.69
2017-11-20T21:08:32.225Z,20.78
2017-11-20T21:11:04.023Z,20.77
2017-11-20T21:13:29.819Z,20.79
2017-11-20T21:15:55.614Z,20.84
2017-11-20T21:18:21.414Z,20.81
2017-11-20T21:20:47.215Z,20.68
2017-11-20T21:23:13.033Z,20.70
2017-11-20T21:25:38.838Z,20.71
2017-11-20T21:28:04.621Z,20.81
2017-11-20T21:30:30.403Z,20.80
2017-11-20T21:32:56.184Z,20.79
2017-11-20T21:35:22.018Z,20.77
2017-11-20T21:37:47.809Z,20.67
2017-11-20T21:40:13.599Z,20.73
2017-11-20T21:42:39.394Z,20.69
2017-11-20T21:45:05.173Z,20.80
2017-11-20T21:47:30.949Z,20.83
2017-11-20T21:49:56.729Z,20.70
2017-11-20T21:52:22.545Z,20.66
2017-11-20T21:54:48.329Z,20.65
2017-11-20T21:57:14.141Z,20.71
2017-11-20T21:59:39.930Z,20.80
2017-11-20T22:02:05.718Z,20.78
2017-11-20T22:04:31.489Z,20.77
2017-11-20T22:06:57.434Z,20.81
2017-11-20T22:09:23.297Z,20.81
2017-11-20T22:11:49.081Z,20.75
2017-11-20T22:14:14.905Z,20.76
2017-11-20T22:16:40.698Z,20.71
2017-11-20T22:19:06.481Z,20.74
2017-11-20T22:21:32.264Z,20.78
2017-11-20T22:23:58.057Z,20.74
2017-11-20T22:26:23.895Z,20.68
2017-11-20T22:28:49.689Z,20.67
2017-11-20T22:31:15.489Z,20.72
2017-11-20T22:33:41.294Z,20.69
2017-11-20T22:36:07.097Z,20.72
2017-11-20T22:38:32.897Z,20.71
2017-11-20T22:40:58.707Z,20.70
2017-11-20T22:43:24.521Z,20.71
2017-11-20T22:45:50.317Z,20.60
2017-11-20T22:48:16.100Z,20.66
2017-11-20T22:50:41.900Z,20.64
2017-11-20T22:53:07.697Z,20.65
2017-11-20T22:55:33.509Z,20.64
2017-11-20T22:57:59.298Z,20.62
2017-11-20T23:00:25.093Z,20.62
2017-11-20T23:02:50.877Z,20.58
2017-11-20T23:05:16.658Z,20.57
2017-11-20T23:07:42.444Z,20.63
2017-11-20T23:10:08.233Z,20.60
2017-11-20T23:12:34.028Z,20.61
2017-11-20T23:14:59.825Z,20.59
2017-11-20T23:17:25.602Z,20.56
2017-11-20T23:19:51.418Z,20.55
2017-11-20T23:22:17.201Z,20.55
2017-11-20T23:24:43.045Z,20.52
2017-11-20T23:27:08.826Z,20.55
2017-11-20T23:29:34.616Z,20.59
2017-11-20T23:32:00.401Z,20.58
2017-11-20T23:34:26.188Z,20.56
2017-11-20T23:36:52.018Z,20.46
2017-11-20T23:39:17.802Z,20.53
2017-11-20T23:41:43.617Z,20.55
2017-11-20T23:44:09.401Z,20.57
2017-11-20T23:46:35.189Z,20.58
2017-11-20T23:49:00.981Z,20.59
2017-11-20T23:51:26.770Z,20.54
2017-11-20T23:53:52.560Z,20.49
2017-11-20T23:56:18.350Z,20.55
2017-11-20T23:58:44.131Z,20.55
